createdAt,value
2018-06-10T00:01:38.120Z,20.70
2018-06-10T00:04:06.700Z,20.70
2018-06-10T00:06:35.188Z,20.60
2018-06-10T00:09:05.136Z,20.70
2018-06-10T00:11:33.566Z,20.80
2018-06-10T00:14:02.024Z,20.70
2018-06-10T00:16:30.593Z,20.70
2018-06-10T00:18:59.036Z,20.60
2018-06-10T00:21:27.973Z,20.50
2018-06-10T00:23:56.509Z,20.40
2018-06-10T00:26:25.058Z,20.30
2018-06-10T00:28:58.776Z,20.20
2018-06-10T00:31:27.248Z,20.10
2018-06-10T00:33:55.769Z,20.00
2018-06-10T00:36:24.280Z,19.90
2018-06-10T00:41:20.848Z,20.20
2018-06-10T00:43:49.373Z,20.10
2018-06-10T00:46:17.864Z,20.00
2018-06-10T00:48:46.292Z,20.00
2018-06-10T00:51:14.819Z,19.90
2018-06-10T00:53:43.272Z,20.00
2018-06-10T00:56:23.061Z,19.90
2018-06-10T00:58:51.570Z,19.90
2018-06-10T01:01:20.023Z,19.80
2018-06-10T01:03:48.624Z,19.90
2018-06-10T01:06:17.064Z,20.00
2018-06-10T01:08:45.551Z,20.00
2018-06-10T01:11:13.985Z,20.10
2018-06-10T01:13:42.481Z,20.00
2018-06-10T01:16:11.081Z,19.90
2018-06-10T01:18:39.516Z,20.10
2018-06-10T01:21:08.180Z,20.10
2018-06-10T01:23:36.711Z,20.00
2018-06-10T01:26:05.203Z,20.00
2018-06-10T01:28:33.755Z,20.00
2018-06-10T01:31:02.843Z,20.10
2018-06-10T01:33:31.298Z,20.10
2018-06-10T01:35:59.869Z,20.10
2018-06-10T01:38:28.859Z,20.10
2018-06-10T01:40:57.306Z,20.10
2018-06-10T01:43:25.802Z,20.10
2018-06-10T01:45:54.299Z,20.10
2018-06-10T01:48:22.815Z,20.10
2018-06-10T01:50:51.657Z,20.10
2018-06-10T01:53:20.103Z,20.10
2018-06-10T01:55:48.559Z,20.00
2018-06-10T01:58:17.078Z,20.00
2018-06-10T02:00:45.670Z,20.00
2018-06-10T02:03:14.241Z,20.00
2018-06-10T02:05:42.899Z,20.00
2018-06-10T02:08:11.323Z,19.90
2018-06-10T02:10:39.753Z,19.90
2018-06-10T02:13:08.243Z,19.90
2018-06-10T02:15:36.660Z,19.80
2018-06-10T02:18:05.578Z,19.80
2018-06-10T02:20:34.183Z,19.80
2018-06-10T02:23:02.610Z,19.70
2018-06-10T02:25:32.275Z,19.70
2018-06-10T02:28:00.753Z,19.70
2018-06-10T02:30:29.236Z,19.60
2018-06-10T02:32:57.771Z,19.70
2018-06-10T02:35:26.241Z,19.60
2018-06-10T02:37:54.749Z,19.60
2018-06-10T02:40:23.375Z,19.50
2018-06-10T02:42:51.847Z,19.50
2018-06-10T02:45:22.251Z,19.40
2018-06-10T02:47:50.674Z,19.40
2018-06-10T02:50:19.157Z,19.40
2018-06-10T02:52:47.628Z,19.40
2018-06-10T02:55:16.065Z,19.30
2018-06-10T02:57:44.535Z,19.30
2018-06-10T03:00:13.182Z,19.30
2018-06-10T03:02:41.764Z,19.30
2018-06-10T03:05:10.222Z,19.30
2018-06-10T03:07:38.686Z,19.30
2018-06-10T03:10:07.717Z,19.40
2018-06-10T03:12:36.263Z,19.30
2018-06-10T03:15:04.773Z,19.20
2018-06-10T03:17:33.417Z,19.30
2018-06-10T03:20:01.988Z,19.30
2018-06-10T03:24:58.700Z,19.30
2018-06-10T03:27:27.545Z,19.30
2018-06-10T03:29:56.094Z,19.20
2018-06-10T03:32:25.861Z,19.20
2018-06-10T03:34:56.655Z,19.30
2018-06-10T03:37:25.220Z,19.30
2018-06-10T03:39:53.824Z,19.30
2018-06-10T03:42:22.437Z,19.20
2018-06-10T03:44:50.914Z,19.30
2018-06-10T03:47:19.398Z,19.30
2018-06-10T03:49:48.017Z,19.30
2018-06-10T03:52:16.487Z,19.30
2018-06-10T03:54:45.090Z,19.30
2018-06-10T03:57:13.528Z,19.30
2018-06-10T03:59:41.988Z,19.20
2018-06-10T04:02:10.444Z,19.30
2018-06-10T04:04:39.225Z,19.40
2018-06-10T04:07:08.067Z,19.30
2018-06-10T04:09:36.500Z,19.40
2018-06-10T04:12:04.917Z,19.40
2018-06-10T04:14:33.544Z,19.50
2018-06-10T04:17:02.254Z,19.50
2018-06-10T04:19:30.734Z,19.50
2018-06-10T04:21:59.285Z,19.60
2018-06-10T04:24:27.734Z,19.60
2018-06-10T04:26:56.295Z,19.70
2018-06-10T04:29:24.765Z,19.90
2018-06-10T04:34:21.498Z,19.90
2018-06-10T04:36:50.269Z,20.00
2018-06-10T04:39:18.736Z,19.70
2018-06-10T04:41:47.253Z,19.60
2018-06-10T04:44:15.759Z,19.70
2018-06-10T04:46:44.378Z,19.60
2018-06-10T04:49:12.891Z,19.20
2018-06-10T04:51:41.374Z,19.20
2018-06-10T04:54:09.828Z,19.10
2018-06-10T04:56:38.468Z,19.10
2018-06-10T04:59:08.039Z,19.10
2018-06-10T05:01:36.431Z,19.20
2018-06-10T05:04:04.875Z,19.30
2018-06-10T05:06:33.457Z,19.30
2018-06-10T05:09:01.960Z,19.60
2018-06-10T05:11:30.636Z,19.60
2018-06-10T05:13:59.139Z,19.70
2018-06-10T05:16:27.575Z,19.60
2018-06-10T05:18:56.011Z,19.90
2018-06-10T05:21:24.597Z,20.50
2018-06-10T05:23:53.060Z,20.80
2018-06-10T05:26:21.704Z,21.60
2018-06-10T05:28:50.192Z,22.30
2018-06-10T05:31:18.770Z,22.40
2018-06-10T05:33:47.210Z,22.50
2018-06-10T05:36:16.911Z,22.40
2018-06-10T05:38:45.373Z,21.40
2018-06-10T05:41:13.836Z,21.10
2018-06-10T05:43:42.319Z,20.90
2018-06-10T05:46:10.781Z,20.90
2018-06-10T05:48:39.281Z,20.90
2018-06-10T05:51:07.786Z,21.30
2018-06-10T05:53:36.271Z,22.40
2018-06-10T05:56:04.834Z,22.40
2018-06-10T05:58:33.437Z,22.00
2018-06-10T06:01:01.917Z,21.80
2018-06-10T06:03:30.369Z,22.30
2018-06-10T06:05:58.888Z,22.10
2018-06-10T06:08:27.400Z,22.10
2018-06-10T06:10:55.899Z,22.40
2018-06-10T06:13:24.478Z,22.50
2018-06-10T06:15:52.983Z,23.00
2018-06-10T06:18:21.395Z,23.40
2018-06-10T06:20:49.917Z,23.60
2018-06-10T06:23:18.404Z,23.70
2018-06-10T06:25:47.785Z,23.20
2018-06-10T06:28:16.328Z,23.20
2018-06-10T06:30:44.828Z,23.10
2018-06-10T06:33:13.349Z,22.90
2018-06-10T06:35:41.773Z,23.20
2018-06-10T06:38:10.259Z,23.10
2018-06-10T06:40:38.777Z,22.10
2018-06-10T06:43:07.300Z,22.30
2018-06-10T06:45:35.856Z,22.70
2018-06-10T06:48:04.332Z,23.00
2018-06-10T06:53:01.111Z,23.70
2018-06-10T06:55:29.621Z,23.70
2018-06-10T06:57:58.167Z,24.10
2018-06-10T07:00:26.586Z,24.10
2018-06-10T07:02:55.048Z,24.20
2018-06-10T07:05:23.569Z,24.60
2018-06-10T07:07:52.101Z,24.60
2018-06-10T07:10:20.799Z,24.40
2018-06-10T07:12:49.301Z,23.70
2018-06-10T07:15:17.844Z,23.80
2018-06-10T07:17:46.370Z,23.90
2018-06-10T07:20:14.893Z,23.50
2018-06-10T07:22:43.376Z,23.40
2018-06-10T07:25:11.902Z,23.20
2018-06-10T07:27:40.365Z,23.20
2018-06-10T07:30:08.887Z,23.10
2018-06-10T07:32:37.348Z,23.00
2018-06-10T07:35:05.940Z,22.80
2018-06-10T07:37:34.444Z,22.90
2018-06-10T07:40:02.963Z,23.00
2018-06-10T07:42:31.447Z,22.90
2018-06-10T07:44:59.927Z,22.80
2018-06-10T07:47:28.443Z,22.70
2018-06-10T07:49:56.902Z,22.50
2018-06-10T07:52:25.470Z,22.50
2018-06-10T07:54:53.976Z,22.60
2018-06-10T07:57:22.590Z,22.50
2018-06-10T07:59:51.017Z,22.30
2018-06-10T08:02:19.515Z,22.90
2018-06-10T08:04:48.228Z,23.20
2018-06-10T08:07:16.863Z,23.40
2018-06-10T08:12:13.556Z,23.20
2018-06-10T08:14:42.056Z,23.20
2018-06-10T08:17:10.598Z,23.20
2018-06-10T08:19:39.123Z,23.10
2018-06-10T08:22:07.633Z,23.50
2018-06-10T08:24:36.119Z,23.50
2018-06-10T08:27:04.681Z,23.40
2018-06-10T08:29:33.250Z,23.30
2018-06-10T08:32:01.766Z,23.00
2018-06-10T08:34:30.272Z,23.10
2018-06-10T08:36:58.787Z,22.80
2018-06-10T08:39:27.291Z,22.70
2018-06-10T08:41:56.247Z,22.40
2018-06-10T08:46:52.828Z,22.40
2018-06-10T08:49:21.273Z,22.30
2018-06-10T08:51:49.792Z,22.30
2018-06-10T08:54:19.041Z,22.20
2018-06-10T08:56:47.534Z,22.00
2018-06-10T08:59:16.077Z,22.10
2018-06-10T09:01:44.566Z,22.20
2018-06-10T09:04:13.173Z,22.10
2018-06-10T09:06:41.649Z,22.10
2018-06-10T09:09:10.154Z,22.20
2018-06-10T09:11:38.818Z,22.30
2018-06-10T09:14:07.408Z,22.50
2018-06-10T09:16:35.881Z,22.70
2018-06-10T09:19:04.576Z,22.90
2018-06-10T09:21:33.019Z,23.10
2018-06-10T09:24:01.494Z,23.10
2018-06-10T09:26:30.016Z,23.30
2018-06-10T09:28:58.520Z,23.30
2018-06-10T09:31:27.034Z,23.10
2018-06-10T09:33:55.637Z,23.50
2018-06-10T09:36:24.326Z,23.20
2018-06-10T09:38:52.820Z,23.40
2018-06-10T09:41:21.313Z,23.60
2018-06-10T09:43:49.785Z,23.70
2018-06-10T09:46:18.315Z,23.30
2018-06-10T09:48:46.788Z,23.20
2018-06-10T09:51:15.286Z,23.30
2018-06-10T09:53:43.741Z,23.60
2018-06-10T09:56:12.312Z,23.70
2018-06-10T09:58:41.010Z,24.00
2018-06-10T10:01:09.498Z,24.10
2018-06-10T10:03:37.992Z,24.10
2018-06-10T10:06:06.442Z,24.10
2018-06-10T10:08:34.991Z,24.30
2018-06-10T10:11:03.497Z,24.40
2018-06-10T10:13:32.009Z,24.60
2018-06-10T10:16:00.495Z,24.70
2018-06-10T10:18:29.044Z,24.60
2018-06-10T10:20:57.533Z,24.70
2018-06-10T10:23:26.092Z,24.90
2018-06-10T10:25:54.686Z,25.70
2018-06-10T10:28:23.255Z,25.90
2018-06-10T10:30:51.797Z,26.10
2018-06-10T10:33:20.243Z,26.00
2018-06-10T10:35:48.709Z,25.70
2018-06-10T10:38:17.242Z,25.50
2018-06-10T10:40:45.693Z,25.90
2018-06-10T10:43:14.275Z,25.70
2018-06-10T10:45:43.095Z,25.90
2018-06-10T10:48:11.590Z,26.20
2018-06-10T10:50:40.046Z,25.80
2018-06-10T10:53:08.935Z,25.60
2018-06-10T10:55:37.399Z,25.70
2018-06-10T10:58:05.928Z,25.80
2018-06-10T11:00:34.669Z,26.00
2018-06-10T11:03:03.142Z,25.60
2018-06-10T11:05:31.620Z,25.90
2018-06-10T11:08:00.094Z,26.60
2018-06-10T11:10:28.545Z,27.10
2018-06-10T11:12:56.976Z,27.40
2018-06-10T11:15:25.594Z,26.80
2018-06-10T11:20:22.363Z,26.10
2018-06-10T11:22:50.805Z,25.90
2018-06-10T11:25:19.404Z,25.60
2018-06-10T11:27:48.231Z,25.50
2018-06-10T11:30:16.712Z,25.40
2018-06-10T11:32:45.422Z,25.40
2018-06-10T11:35:13.904Z,25.80
2018-06-10T11:37:48.930Z,25.80
2018-06-10T11:40:17.482Z,25.90
2018-06-10T11:42:45.974Z,26.00
2018-06-10T11:45:14.616Z,25.70
2018-06-10T11:47:43.105Z,25.50
2018-06-10T11:50:11.635Z,25.40
2018-06-10T11:52:40.160Z,25.40
2018-06-10T11:55:08.620Z,25.50
2018-06-10T11:57:37.069Z,25.40
2018-06-10T12:00:05.721Z,25.30
2018-06-10T12:02:34.272Z,25.50
2018-06-10T12:05:02.722Z,25.90
2018-06-10T12:07:31.206Z,26.50
2018-06-10T12:09:59.810Z,26.50
2018-06-10T12:12:28.483Z,26.70
2018-06-10T12:14:57.041Z,26.90
2018-06-10T12:17:25.666Z,26.60
2018-06-10T12:19:54.373Z,26.10
2018-06-10T12:22:22.868Z,25.90
2018-06-10T12:24:51.661Z,25.80
2018-06-10T12:29:48.546Z,25.90
2018-06-10T12:32:17.025Z,25.90
2018-06-10T12:34:45.561Z,26.10
2018-06-10T12:37:14.100Z,25.80
2018-06-10T12:39:42.537Z,25.50
2018-06-10T12:42:11.021Z,25.70
2018-06-10T12:44:39.524Z,25.40
2018-06-10T12:47:08.098Z,25.10
2018-06-10T12:49:36.656Z,25.20
2018-06-10T12:52:05.326Z,25.60
2018-06-10T12:54:33.798Z,25.80
2018-06-10T12:57:02.376Z,25.70
2018-06-10T12:59:30.922Z,25.50
2018-06-10T13:01:59.393Z,25.70
2018-06-10T13:04:27.904Z,25.90
2018-06-10T13:06:56.458Z,26.00
2018-06-10T13:09:24.940Z,26.10
2018-06-10T13:11:53.445Z,26.00
2018-06-10T13:14:21.872Z,26.10
2018-06-10T13:16:51.520Z,26.20
2018-06-10T13:19:19.992Z,25.90
2018-06-10T13:21:48.449Z,26.10
2018-06-10T13:24:16.910Z,26.50
2018-06-10T13:26:45.341Z,26.50
2018-06-10T13:29:13.809Z,26.70
2018-06-10T13:31:42.287Z,26.50
2018-06-10T13:34:10.812Z,26.10
2018-06-10T13:36:39.276Z,25.90
2018-06-10T13:39:08.915Z,26.00
2018-06-10T13:41:37.430Z,25.80
2018-06-10T13:44:05.986Z,26.40
2018-06-10T13:46:34.486Z,26.50
2018-06-10T13:49:02.940Z,26.30
2018-06-10T13:51:31.503Z,26.10
2018-06-10T13:54:00.685Z,26.20
2018-06-10T13:56:29.094Z,26.30
2018-06-10T13:58:58.224Z,26.40
2018-06-10T14:01:26.985Z,26.30
2018-06-10T14:03:55.545Z,25.90
2018-06-10T14:06:27.524Z,25.70
2018-06-10T14:08:57.271Z,25.90
2018-06-10T14:11:25.785Z,26.10
2018-06-10T14:13:54.325Z,25.90
2018-06-10T14:16:22.766Z,26.30
2018-06-10T14:18:51.264Z,26.40
2018-06-10T14:21:19.715Z,26.30
2018-06-10T14:23:48.263Z,26.20
2018-06-10T14:26:16.724Z,26.00
2018-06-10T14:28:45.465Z,26.00
2018-06-10T14:31:13.970Z,25.90
2018-06-10T14:33:42.433Z,25.90
2018-06-10T14:36:10.969Z,25.80
2018-06-10T14:38:39.418Z,25.60
2018-06-10T14:41:07.990Z,25.60
2018-06-10T14:43:36.437Z,25.40
2018-06-10T14:46:04.937Z,25.70
2018-06-10T14:48:33.484Z,25.70
2018-06-10T14:51:02.088Z,25.60
2018-06-10T14:53:30.619Z,25.70
2018-06-10T14:55:59.186Z,25.80
2018-06-10T14:58:28.032Z,25.80
2018-06-10T15:00:58.269Z,25.70
2018-06-10T15:03:26.813Z,25.80
2018-06-10T15:05:55.496Z,25.80
2018-06-10T15:08:23.923Z,26.00
2018-06-10T15:10:52.489Z,26.10
2018-06-10T15:13:22.673Z,26.30
2018-06-10T15:15:51.280Z,26.20
2018-06-10T15:18:19.760Z,26.50
2018-06-10T15:20:48.854Z,26.10
2018-06-10T15:23:17.310Z,26.00
2018-06-10T15:25:45.789Z,25.90
2018-06-10T15:28:14.531Z,26.10
2018-06-10T15:30:49.673Z,26.20
2018-06-10T15:33:18.157Z,26.20
2018-06-10T15:35:46.685Z,26.10
2018-06-10T15:38:15.864Z,26.30
2018-06-10T15:40:44.451Z,26.50
2018-06-10T15:43:12.932Z,26.30
2018-06-10T15:45:42.768Z,26.00
2018-06-10T15:48:11.309Z,26.00
2018-06-10T15:50:39.854Z,25.90
2018-06-10T15:53:08.354Z,25.70
2018-06-10T15:58:05.221Z,25.30
2018-06-10T16:00:33.725Z,25.10
2018-06-10T16:03:02.480Z,25.10
2018-06-10T16:07:59.622Z,25.40
2018-06-10T16:10:28.200Z,25.30
2018-06-10T16:12:56.833Z,25.20
2018-06-10T16:15:25.669Z,25.30
2018-06-10T16:17:55.513Z,25.30
2018-06-10T16:25:20.540Z,25.40
2018-06-10T16:27:49.358Z,25.30
2018-06-10T16:30:18.241Z,25.70
2018-06-10T16:32:46.876Z,25.80
2018-06-10T16:35:15.373Z,25.60
2018-06-10T16:37:43.966Z,25.60
2018-06-10T16:40:12.579Z,25.70
2018-06-10T16:42:41.181Z,25.60
2018-06-10T16:45:10.076Z,25.80
2018-06-10T16:47:39.051Z,25.80
2018-06-10T16:50:07.578Z,25.80
2018-06-10T16:52:36.031Z,25.80
2018-06-10T16:55:04.526Z,25.80
2018-06-10T16:57:33.349Z,26.00
2018-06-10T17:00:01.823Z,26.10
2018-06-10T17:02:30.357Z,25.80
2018-06-10T17:04:58.895Z,25.30
2018-06-10T17:07:27.351Z,25.40
2018-06-10T17:12:24.005Z,25.40
2018-06-10T17:14:52.464Z,25.40
2018-06-10T17:17:20.986Z,25.20
2018-06-10T17:19:49.589Z,25.20
2018-06-10T17:22:18.100Z,25.10
2018-06-10T17:24:46.613Z,25.20
2018-06-10T17:27:15.131Z,25.10
2018-06-10T17:29:43.593Z,25.10
2018-06-10T17:32:12.184Z,25.10
2018-06-10T17:34:40.711Z,25.10
2018-06-10T17:37:09.198Z,24.90
2018-06-10T17:39:37.749Z,24.90
2018-06-10T17:42:06.467Z,24.80
2018-06-10T17:44:34.984Z,24.90
2018-06-10T17:47:03.853Z,24.80
2018-06-10T17:49:33.110Z,24.80
2018-06-10T17:52:01.631Z,24.90
2018-06-10T17:54:30.125Z,24.80
2018-06-10T17:56:59.745Z,24.80
2018-06-10T17:59:28.294Z,24.70
2018-06-10T18:01:56.873Z,24.70
2018-06-10T18:04:26.796Z,24.60
2018-06-10T18:06:55.257Z,24.50
2018-06-10T18:09:23.783Z,24.50
2018-06-10T18:11:52.278Z,24.40
2018-06-10T18:14:20.832Z,24.40
2018-06-10T18:16:49.354Z,24.40
2018-06-10T18:19:17.923Z,24.40
2018-06-10T18:21:46.433Z,24.40
2018-06-10T18:24:15.047Z,24.30
2018-06-10T18:26:43.599Z,24.20
2018-06-10T18:29:12.449Z,24.20
2018-06-10T18:31:40.968Z,24.20
2018-06-10T18:34:09.470Z,24.10
2018-06-10T18:36:38.199Z,24.00
2018-06-10T18:39:08.569Z,23.90
2018-06-10T18:41:37.160Z,23.90
2018-06-10T18:44:05.736Z,23.90
2018-06-10T18:46:34.872Z,23.80
2018-06-10T18:49:03.505Z,23.90
2018-06-10T18:51:32.059Z,23.80
2018-06-10T18:54:00.962Z,23.80
2018-06-10T18:56:29.453Z,23.70
2018-06-10T18:58:57.933Z,23.60
2018-06-10T19:01:26.647Z,23.60
2018-06-10T19:03:58.110Z,23.50
2018-06-10T19:06:26.913Z,23.50
2018-06-10T19:08:56.805Z,23.40
2018-06-10T19:11:25.636Z,23.40
2018-06-10T19:13:54.583Z,23.30
2018-06-10T19:16:23.391Z,23.30
2018-06-10T19:18:53.346Z,23.30
2018-06-10T19:21:21.952Z,23.30
2018-06-10T19:23:50.536Z,23.30
2018-06-10T19:26:19.096Z,23.30
2018-06-10T19:28:47.759Z,23.20
2018-06-10T19:31:16.253Z,23.20
2018-06-10T19:33:44.758Z,23.10
2018-06-10T19:36:13.283Z,23.10
2018-06-10T19:38:41.939Z,23.00
2018-06-10T19:41:10.457Z,22.90
2018-06-10T19:43:39.022Z,23.00
2018-06-10T19:46:07.552Z,22.90
2018-06-10T19:48:36.013Z,22.90
2018-06-10T19:51:04.560Z,22.90
2018-06-10T19:53:33.075Z,22.80
2018-06-10T19:56:01.584Z,22.80
2018-06-10T19:58:30.360Z,22.70
2018-06-10T20:00:58.819Z,22.70
2018-06-10T20:03:27.401Z,22.70
2018-06-10T20:05:55.996Z,22.60
2018-06-10T20:08:24.582Z,22.50
2018-06-10T20:10:53.033Z,22.40
2018-06-10T20:13:21.841Z,22.40
2018-06-10T20:15:50.363Z,22.30
2018-06-10T20:18:18.860Z,22.30
2018-06-10T20:20:47.368Z,22.20
2018-06-10T20:23:15.856Z,22.10
2018-06-10T20:25:44.368Z,22.10
2018-06-10T20:28:12.889Z,22.00
2018-06-10T20:30:41.594Z,22.10
2018-06-10T20:33:10.028Z,22.00
2018-06-10T20:35:38.924Z,22.00
2018-06-10T20:38:07.336Z,21.90
2018-06-10T20:40:35.801Z,21.90
2018-06-10T20:43:04.310Z,22.00
2018-06-10T20:45:32.757Z,21.90
2018-06-10T20:48:01.243Z,21.90
2018-06-10T20:50:29.719Z,21.80
2018-06-10T20:55:26.345Z,21.80
2018-06-10T20:57:54.868Z,21.80
2018-06-10T21:00:23.358Z,21.70
2018-06-10T21:02:51.843Z,21.70
2018-06-10T21:05:20.344Z,21.60
2018-06-10T21:07:48.904Z,21.60
2018-06-10T21:10:17.552Z,21.50
2018-06-10T21:12:46.067Z,21.50
2018-06-10T21:15:15.703Z,21.50
2018-06-10T21:17:44.267Z,21.50
2018-06-10T21:20:12.772Z,21.40
2018-06-10T21:22:41.203Z,21.40
2018-06-10T21:25:09.713Z,21.40
2018-06-10T21:27:38.227Z,21.40
2018-06-10T21:30:06.760Z,21.40
2018-06-10T21:32:35.205Z,21.40
2018-06-10T21:35:03.746Z,21.30
2018-06-10T21:37:32.187Z,21.20
2018-06-10T21:40:00.721Z,21.20
2018-06-10T21:42:29.288Z,21.20
2018-06-10T21:44:57.766Z,21.10
2018-06-10T21:47:26.291Z,21.00
2018-06-10T21:49:54.729Z,21.10
2018-06-10T21:52:23.215Z,21.10
2018-06-10T21:54:51.692Z,21.00
2018-06-10T21:57:20.179Z,21.00
2018-06-10T21:59:48.930Z,20.90
2018-06-10T22:02:17.438Z,20.90
2018-06-10T22:04:45.948Z,20.90
2018-06-10T22:07:14.400Z,21.00
2018-06-10T22:09:42.895Z,21.00
2018-06-10T22:12:11.458Z,21.00
2018-06-10T22:14:39.943Z,21.10
2018-06-10T22:17:08.465Z,21.10
2018-06-10T22:19:37.025Z,21.10
2018-06-10T22:22:05.524Z,21.10
2018-06-10T22:24:34.034Z,21.20
2018-06-10T22:27:02.720Z,21.20
2018-06-10T22:29:31.173Z,21.10
2018-06-10T22:31:59.724Z,21.10
2018-06-10T22:34:28.124Z,21.10
2018-06-10T22:36:56.598Z,21.10
2018-06-10T22:39:25.022Z,21.20
2018-06-10T22:41:53.490Z,21.20
2018-06-10T22:44:21.988Z,21.10
2018-06-10T22:46:50.643Z,21.10
2018-06-10T22:51:47.245Z,21.10
2018-06-10T22:54:27.064Z,21.10
2018-06-10T22:56:55.616Z,21.10
2018-06-10T22:59:24.023Z,21.10
2018-06-10T23:01:52.516Z,21.00
2018-06-10T23:04:20.987Z,21.10
2018-06-10T23:06:49.433Z,21.00
2018-06-10T23:09:17.872Z,21.00
2018-06-10T23:11:46.322Z,21.00
2018-06-10T23:14:14.751Z,21.00
2018-06-10T23:16:43.253Z,21.00
2018-06-10T23:19:11.740Z,20.90
2018-06-10T23:21:40.446Z,20.80
2018-06-10T23:24:08.976Z,20.90
2018-06-10T23:26:37.446Z,20.80
2018-06-10T23:29:06.018Z,20.80
2018-06-10T23:31:34.532Z,20.90
2018-06-10T23:34:02.973Z,20.80
2018-06-10T23:36:31.709Z,20.90
2018-06-10T23:39:00.313Z,20.80
2018-06-10T23:41:28.806Z,20.80
2018-06-10T23:43:57.252Z,20.80
2018-06-10T23:46:25.730Z,20.80
2018-06-10T23:48:54.188Z,20.70
2018-06-10T23:51:22.741Z,20.70
2018-06-10T23:53:51.243Z,20.60
2018-06-10T23:56:19.681Z,20.60
2018-06-10T23:58:48.161Z,20.60
